createdAt,value
2018-12-06T00:00:45.155Z,4.10
2018-12-06T00:03:08.313Z,4.37
2018-12-06T00:05:31.433Z,4.13
2018-12-06T00:08:06.411Z,4.37
2018-12-06T00:10:29.561Z,4.00
2018-12-06T00:12:52.654Z,3.97
2018-12-06T00:15:24.999Z,4.10
2018-12-06T00:17:48.093Z,4.33
2018-12-06T00:20:11.196Z,4.37
2018-12-06T00:22:34.306Z,4.40
2018-12-06T00:24:57.406Z,4.37
2018-12-06T00:27:20.514Z,4.20
2018-12-06T00:29:47.510Z,4.57
2018-12-06T00:32:10.631Z,5.33
2018-12-06T00:34:33.757Z,4.67
2018-12-06T00:36:56.880Z,5.10
2018-12-06T00:39:19.964Z,4.67
2018-12-06T00:41:43.157Z,4.50
2018-12-06T00:44:06.314Z,4.80
2018-12-06T00:46:29.421Z,4.50
2018-12-06T00:48:52.509Z,4.87
2018-12-06T00:51:15.661Z,4.23
2018-12-06T00:53:38.776Z,4.20
2018-12-06T00:56:01.915Z,3.87
2018-12-06T00:58:25.018Z,4.40
2018-12-06T01:00:48.156Z,4.20
2018-12-06T01:03:11.264Z,4.53
2018-12-06T01:05:34.694Z,4.67
2018-12-06T01:07:57.802Z,4.40
2018-12-06T01:10:20.903Z,4.17
2018-12-06T01:12:44.040Z,4.67
2018-12-06T01:15:07.201Z,4.73
2018-12-06T01:17:30.310Z,4.70
2018-12-06T01:19:53.408Z,4.50
2018-12-06T01:22:16.556Z,5.10
2018-12-06T01:24:39.649Z,5.30
2018-12-06T01:27:02.737Z,5.00
2018-12-06T01:29:25.880Z,4.90
2018-12-06T01:31:49.094Z,4.73
2018-12-06T01:34:12.231Z,5.07
2018-12-06T01:36:35.327Z,4.73
2018-12-06T01:38:58.453Z,5.23
2018-12-06T01:41:21.560Z,5.40
2018-12-06T01:43:44.670Z,5.17
2018-12-06T01:46:07.816Z,4.97
2018-12-06T01:48:31.051Z,5.10
2018-12-06T01:50:54.238Z,5.53
2018-12-06T01:53:17.349Z,5.40
2018-12-06T01:55:40.463Z,5.53
2018-12-06T01:58:03.655Z,5.57
2018-12-06T02:00:26.777Z,5.20
2018-12-06T02:02:49.926Z,5.60
2018-12-06T02:05:13.062Z,4.93
2018-12-06T02:07:36.185Z,5.33
2018-12-06T02:09:59.340Z,5.67
2018-12-06T02:12:22.432Z,5.80
2018-12-06T02:14:45.583Z,5.03
2018-12-06T02:17:08.705Z,5.07
2018-12-06T02:19:31.806Z,5.20
2018-12-06T02:21:54.904Z,5.03
2018-12-06T02:24:18.086Z,5.40
2018-12-06T02:26:41.194Z,5.63
2018-12-06T02:29:04.356Z,5.17
2018-12-06T02:31:27.470Z,5.30
2018-12-06T02:33:50.599Z,5.33
2018-12-06T02:36:13.744Z,6.23
2018-12-06T02:38:36.853Z,5.13
2018-12-06T02:41:00.013Z,5.20
2018-12-06T02:43:23.113Z,6.00
2018-12-06T02:45:46.238Z,4.97
2018-12-06T02:48:09.402Z,5.20
2018-12-06T02:50:32.558Z,5.40
2018-12-06T02:52:55.692Z,5.97
2018-12-06T02:55:18.811Z,5.50
2018-12-06T02:57:41.917Z,5.73
2018-12-06T03:00:05.185Z,5.73
2018-12-06T03:02:28.301Z,5.07
2018-12-06T03:04:51.417Z,5.67
2018-12-06T03:07:14.499Z,5.27
2018-12-06T03:09:37.653Z,5.90
2018-12-06T03:12:00.798Z,5.10
2018-12-06T03:14:23.959Z,4.97
2018-12-06T03:16:47.074Z,5.30
2018-12-06T03:19:10.191Z,5.77
2018-12-06T03:21:33.307Z,5.40
2018-12-06T03:23:56.441Z,5.20
2018-12-06T03:26:19.603Z,5.47
2018-12-06T03:28:42.697Z,5.70
2018-12-06T03:31:05.828Z,5.20
2018-12-06T03:33:28.936Z,5.10
2018-12-06T03:35:52.060Z,4.80
2018-12-06T03:38:15.165Z,5.77
2018-12-06T03:40:38.260Z,4.90
2018-12-06T03:43:01.388Z,5.03
2018-12-06T03:45:24.486Z,5.03
2018-12-06T03:47:47.612Z,4.97
2018-12-06T03:50:10.720Z,4.07
2018-12-06T03:52:33.829Z,4.20
2018-12-06T03:54:56.920Z,5.23
2018-12-06T03:57:20.012Z,4.43
2018-12-06T04:02:12.609Z,4.83
2018-12-06T04:04:35.924Z,5.20
2018-12-06T04:06:59.042Z,6.90
2018-12-06T04:09:22.181Z,5.67
2018-12-06T04:11:45.343Z,5.50
2018-12-06T04:14:08.496Z,5.20
2018-12-06T04:16:31.592Z,4.90
2018-12-06T04:18:54.843Z,4.73
2018-12-06T04:21:17.964Z,5.67
2018-12-06T04:23:41.088Z,5.47
2018-12-06T04:26:04.209Z,6.67
2018-12-06T04:28:27.328Z,6.10
2018-12-06T04:30:50.430Z,6.03
2018-12-06T04:33:13.556Z,6.10
2018-12-06T04:35:36.664Z,5.83
2018-12-06T04:37:59.767Z,5.30
2018-12-06T04:40:22.876Z,5.53
2018-12-06T04:42:45.982Z,5.33
2018-12-06T04:45:10.675Z,4.90
2018-12-06T04:47:33.965Z,4.23
2018-12-06T04:49:57.113Z,4.90
2018-12-06T04:52:20.195Z,4.80
2018-12-06T04:54:43.343Z,4.73
2018-12-06T04:57:06.488Z,4.10
2018-12-06T04:59:29.576Z,4.40
2018-12-06T05:01:52.730Z,4.87
2018-12-06T05:04:15.906Z,4.60
2018-12-06T05:06:39.021Z,4.17
2018-12-06T05:09:02.164Z,4.73
2018-12-06T05:11:25.299Z,4.80
2018-12-06T05:13:48.431Z,4.73
2018-12-06T05:16:11.548Z,4.27
2018-12-06T05:18:34.643Z,4.57
2018-12-06T05:20:57.763Z,4.70
2018-12-06T05:23:20.859Z,4.70
2018-12-06T05:25:44.016Z,5.03
2018-12-06T05:28:07.113Z,5.40
2018-12-06T05:30:30.223Z,5.90
2018-12-06T05:32:53.348Z,5.73
2018-12-06T05:35:16.445Z,5.43
2018-12-06T05:37:39.564Z,6.27
2018-12-06T05:40:02.733Z,6.73
2018-12-06T05:42:25.871Z,6.67
2018-12-06T05:44:48.952Z,5.60
2018-12-06T05:47:12.082Z,5.73
2018-12-06T05:49:35.183Z,5.23
2018-12-06T05:51:58.331Z,5.67
2018-12-06T05:54:21.435Z,4.93
2018-12-06T05:56:44.526Z,4.90
2018-12-06T05:59:07.636Z,4.57
2018-12-06T06:01:30.741Z,4.77
2018-12-06T06:03:54.018Z,4.30
2018-12-06T06:06:17.115Z,4.93
2018-12-06T06:08:40.270Z,4.80
2018-12-06T06:11:03.382Z,4.60
2018-12-06T06:13:26.528Z,5.20
2018-12-06T06:15:49.651Z,4.40
2018-12-06T06:18:12.759Z,4.80
2018-12-06T06:20:35.882Z,4.40
2018-12-06T06:22:58.994Z,5.40
2018-12-06T06:25:22.080Z,5.30
2018-12-06T06:27:45.209Z,5.90
2018-12-06T06:30:08.466Z,7.27
2018-12-06T06:32:31.639Z,6.63
2018-12-06T06:34:54.755Z,5.97
2018-12-06T06:37:17.879Z,6.10
2018-12-06T06:39:40.990Z,5.53
2018-12-06T06:42:04.145Z,5.13
2018-12-06T06:44:27.306Z,5.33
2018-12-06T06:46:50.402Z,5.30
2018-12-06T06:49:14.111Z,5.77
2018-12-06T06:51:37.543Z,5.63
2018-12-06T06:54:00.663Z,5.50
2018-12-06T06:56:23.846Z,5.53
2018-12-06T06:58:46.951Z,5.33
2018-12-06T07:01:10.086Z,5.20
2018-12-06T07:03:33.227Z,5.10
2018-12-06T07:05:56.454Z,5.97
2018-12-06T07:08:19.562Z,5.97
2018-12-06T07:10:42.702Z,5.60
2018-12-06T07:13:05.828Z,5.83
2018-12-06T07:15:28.934Z,5.87
2018-12-06T07:17:52.016Z,6.77
2018-12-06T07:20:15.217Z,6.20
2018-12-06T07:22:38.344Z,6.30
2018-12-06T07:25:01.453Z,6.50
2018-12-06T07:27:24.758Z,6.87
2018-12-06T07:29:48.641Z,6.53
2018-12-06T07:32:11.860Z,6.83
2018-12-06T07:34:34.977Z,7.50
2018-12-06T07:36:58.137Z,7.37
2018-12-06T07:39:21.282Z,7.07
2018-12-06T07:41:44.390Z,7.67
2018-12-06T07:44:07.486Z,7.13
2018-12-06T07:46:30.663Z,8.07
2018-12-06T07:48:53.934Z,7.40
2018-12-06T07:51:17.032Z,8.03
2018-12-06T07:53:40.162Z,8.10
2018-12-06T07:56:03.299Z,8.13
2018-12-06T07:58:26.444Z,8.63
2018-12-06T08:00:49.528Z,9.00
2018-12-06T08:03:12.690Z,8.60
2018-12-06T08:05:35.802Z,8.70
2018-12-06T08:07:58.908Z,9.07
2018-12-06T08:10:22.050Z,9.57
2018-12-06T08:12:45.227Z,9.57
2018-12-06T08:15:08.604Z,9.17
2018-12-06T08:17:31.754Z,10.20
2018-12-06T08:19:54.838Z,10.87
2018-12-06T08:22:17.991Z,10.60
2018-12-06T08:24:41.123Z,12.03
2018-12-06T08:27:04.286Z,10.77
2018-12-06T08:29:27.380Z,11.57
2018-12-06T08:31:50.507Z,10.97
2018-12-06T08:34:13.622Z,12.10
2018-12-06T08:36:36.729Z,11.73
2018-12-06T08:38:59.856Z,12.30
2018-12-06T08:41:22.952Z,11.37
2018-12-06T08:43:46.116Z,11.77
2018-12-06T08:46:09.251Z,12.90
2018-12-06T08:48:32.349Z,12.33
2018-12-06T08:50:55.477Z,12.63
2018-12-06T08:53:18.575Z,12.60
2018-12-06T08:55:41.766Z,13.00
2018-12-06T08:58:04.882Z,13.40
2018-12-06T09:00:28.048Z,13.10
2018-12-06T09:02:51.155Z,12.90
2018-12-06T09:05:14.299Z,13.77
2018-12-06T09:07:37.508Z,13.17
2018-12-06T09:10:00.615Z,14.33
2018-12-06T09:12:23.738Z,16.10
2018-12-06T09:14:46.893Z,17.40
2018-12-06T09:17:10.025Z,15.63
2018-12-06T09:19:33.148Z,14.93
2018-12-06T09:21:56.298Z,14.90
2018-12-06T09:24:19.445Z,14.20
2018-12-06T09:26:42.548Z,16.10
2018-12-06T09:29:05.659Z,14.60
2018-12-06T09:31:29.557Z,14.57
2018-12-06T09:34:01.160Z,14.57
2018-12-06T09:36:24.280Z,15.50
2018-12-06T09:38:47.394Z,15.67
2018-12-06T09:41:10.568Z,15.87
2018-12-06T09:43:33.678Z,15.80
2018-12-06T09:45:56.818Z,17.03
2018-12-06T09:48:19.942Z,16.43
2018-12-06T09:50:43.153Z,16.10
2018-12-06T09:53:06.342Z,16.47
2018-12-06T09:55:29.555Z,16.23
2018-12-06T09:57:52.699Z,16.63
2018-12-06T10:00:16.186Z,16.37
2018-12-06T10:02:39.327Z,16.13
2018-12-06T10:05:02.478Z,17.17
2018-12-06T10:07:27.313Z,16.63
2018-12-06T10:09:50.506Z,16.53
2018-12-06T10:12:13.619Z,17.90
2018-12-06T10:14:36.799Z,16.90
2018-12-06T10:16:59.907Z,17.30
2018-12-06T10:19:23.028Z,17.07
2018-12-06T10:21:46.177Z,17.17
2018-12-06T10:24:09.325Z,17.47
2018-12-06T10:26:32.508Z,16.73
2018-12-06T10:28:55.638Z,17.27
2018-12-06T10:31:18.803Z,16.90
2018-12-06T10:33:44.803Z,17.13
2018-12-06T10:36:07.988Z,17.60
2018-12-06T10:38:32.628Z,17.27
2018-12-06T10:40:55.750Z,16.80
2018-12-06T10:43:18.868Z,17.50
2018-12-06T10:45:42.021Z,16.80
2018-12-06T10:48:05.236Z,17.23
2018-12-06T10:50:28.338Z,19.23
2018-12-06T10:52:52.963Z,17.07
2018-12-06T10:55:16.093Z,16.23
2018-12-06T10:57:39.190Z,16.20
2018-12-06T11:00:02.368Z,16.17
2018-12-06T11:02:29.187Z,16.27
2018-12-06T11:04:52.344Z,16.50
2018-12-06T11:07:15.486Z,16.23
2018-12-06T11:09:38.594Z,14.90
2018-12-06T11:12:01.773Z,15.83
2018-12-06T11:14:25.678Z,15.63
2018-12-06T11:16:48.809Z,16.57
2018-12-06T11:19:12.784Z,15.57
2018-12-06T11:21:35.888Z,15.10
2018-12-06T11:23:59.050Z,16.63
2018-12-06T11:26:22.128Z,17.23
2018-12-06T11:28:45.220Z,15.53
2018-12-06T11:31:08.411Z,15.37
2018-12-06T11:33:31.544Z,15.53
2018-12-06T11:35:54.661Z,15.73
2018-12-06T11:38:17.832Z,15.03
2018-12-06T11:40:40.970Z,15.10
2018-12-06T11:43:05.718Z,14.20
2018-12-06T11:45:28.891Z,13.23
2018-12-06T11:47:52.010Z,14.40
2018-12-06T11:50:15.117Z,13.03
2018-12-06T11:52:38.275Z,15.00
2018-12-06T11:55:01.368Z,14.73
2018-12-06T11:57:24.483Z,14.10
2018-12-06T11:59:47.621Z,14.13
2018-12-06T12:02:10.800Z,13.73
2018-12-06T12:04:33.905Z,12.63
2018-12-06T12:06:57.042Z,14.00
2018-12-06T12:09:20.157Z,11.90
2018-12-06T12:11:43.260Z,13.47
2018-12-06T12:14:06.427Z,13.07
2018-12-06T12:16:29.572Z,12.43
2018-12-06T12:18:52.703Z,11.20
2018-12-06T12:21:15.855Z,11.83
2018-12-06T12:23:38.985Z,12.63
2018-12-06T12:26:02.107Z,12.67
2018-12-06T12:28:25.254Z,10.90
2018-12-06T12:30:48.414Z,12.33
2018-12-06T12:33:11.532Z,12.47
2018-12-06T12:35:34.666Z,12.23
2018-12-06T12:37:57.792Z,12.63
2018-12-06T12:40:20.916Z,12.10
2018-12-06T12:42:44.026Z,11.33
2018-12-06T12:45:07.556Z,12.13
2018-12-06T12:47:30.811Z,12.30
2018-12-06T12:49:53.900Z,11.53
2018-12-06T12:52:17.046Z,12.67
2018-12-06T12:54:40.148Z,12.23
2018-12-06T12:57:03.344Z,13.50
2018-12-06T12:59:26.455Z,14.17
2018-12-06T13:01:49.614Z,13.80
2018-12-06T13:04:13.213Z,13.93
2018-12-06T13:06:36.335Z,14.30
2018-12-06T13:08:59.473Z,13.37
2018-12-06T13:11:22.598Z,12.90
2018-12-06T13:13:45.693Z,12.50
2018-12-06T13:16:08.799Z,12.57
2018-12-06T13:18:31.924Z,12.00
2018-12-06T13:20:55.090Z,12.43
2018-12-06T13:23:18.195Z,11.70
2018-12-06T13:25:41.345Z,11.93
2018-12-06T13:28:04.562Z,17.33
2018-12-06T13:30:27.748Z,12.90
2018-12-06T13:32:51.065Z,12.93
2018-12-06T13:35:14.219Z,15.70
2018-12-06T13:37:37.465Z,15.17
2018-12-06T13:40:00.593Z,15.73
2018-12-06T13:42:24.609Z,15.20
2018-12-06T13:44:47.776Z,12.13
2018-12-06T13:47:10.954Z,13.20
2018-12-06T13:49:34.136Z,13.27
2018-12-06T13:51:57.300Z,12.90
2018-12-06T13:54:26.725Z,13.13
2018-12-06T13:56:45.517Z,14.07
2018-12-06T13:59:08.622Z,16.63
2018-12-06T14:01:31.778Z,19.07
2018-12-06T14:03:54.890Z,14.80
2018-12-06T14:06:18.010Z,14.03
2018-12-06T14:08:41.117Z,16.00
2018-12-06T14:11:04.280Z,15.90
2018-12-06T14:13:27.464Z,15.60
2018-12-06T14:15:50.554Z,16.00
2018-12-06T14:18:13.682Z,16.87
2018-12-06T14:20:36.821Z,17.33
2018-12-06T14:22:59.981Z,17.73
2018-12-06T14:25:23.162Z,16.83
2018-12-06T14:27:46.340Z,17.47
2018-12-06T14:30:09.599Z,17.20
2018-12-06T14:32:32.803Z,17.17
2018-12-06T14:34:55.930Z,17.87
2018-12-06T14:37:19.104Z,16.53
2018-12-06T14:39:42.235Z,15.43
2018-12-06T14:42:05.549Z,16.80
2018-12-06T14:44:28.706Z,15.00
2018-12-06T14:46:51.848Z,14.30
2018-12-06T14:49:14.974Z,14.77
2018-12-06T14:51:38.155Z,14.87
2018-12-06T14:54:01.356Z,13.43
2018-12-06T14:56:24.523Z,14.80
2018-12-06T14:58:47.683Z,14.73
2018-12-06T15:01:10.795Z,15.07
2018-12-06T15:03:33.912Z,16.30
2018-12-06T15:05:57.043Z,18.90
2018-12-06T15:08:20.167Z,17.80
2018-12-06T15:10:43.296Z,16.37
2018-12-06T15:13:06.420Z,17.13
2018-12-06T15:15:29.528Z,18.63
2018-12-06T15:17:53.538Z,19.37
2018-12-06T15:20:16.666Z,19.57
2018-12-06T15:22:39.866Z,19.97
2018-12-06T15:25:03.035Z,25.50
2018-12-06T15:27:26.596Z,23.53
2018-12-06T15:29:50.187Z,23.53
2018-12-06T15:32:13.816Z,20.00
2018-12-06T15:34:37.010Z,19.27
2018-12-06T15:37:00.141Z,18.60
2018-12-06T15:39:23.278Z,19.27
2018-12-06T15:41:46.434Z,17.90
2018-12-06T15:44:09.567Z,19.40
2018-12-06T15:46:32.743Z,25.43
2018-12-06T15:48:55.883Z,23.10
2018-12-06T15:51:19.066Z,20.60
2018-12-06T15:53:42.263Z,19.00
2018-12-06T15:56:05.697Z,23.23
2018-12-06T15:58:28.851Z,24.83
2018-12-06T16:00:52.006Z,21.83
2018-12-06T16:03:15.222Z,20.77
2018-12-06T16:05:38.336Z,20.80
2018-12-06T16:08:01.465Z,21.17
2018-12-06T16:10:24.605Z,20.10
2018-12-06T16:12:47.761Z,19.00
2018-12-06T16:15:11.016Z,22.70
2018-12-06T16:17:34.223Z,21.03
2018-12-06T16:19:57.327Z,21.90
2018-12-06T16:22:20.520Z,18.83
2018-12-06T16:24:43.645Z,17.10
2018-12-06T16:27:07.654Z,18.10
2018-12-06T16:29:30.797Z,17.40
2018-12-06T16:31:53.925Z,15.87
2018-12-06T16:34:17.076Z,16.57
2018-12-06T16:36:40.293Z,15.90
2018-12-06T16:39:05.375Z,16.17
2018-12-06T16:41:28.521Z,15.90
2018-12-06T16:43:51.652Z,15.27
2018-12-06T16:46:14.811Z,15.07
2018-12-06T16:48:38.391Z,16.00
2018-12-06T16:51:01.524Z,14.27
2018-12-06T16:53:24.659Z,15.13
2018-12-06T16:55:47.831Z,16.47
2018-12-06T16:58:10.977Z,15.30
2018-12-06T17:00:34.113Z,17.93
2018-12-06T17:02:57.252Z,16.23
2018-12-06T17:06:10.341Z,18.40
2018-12-06T17:08:33.481Z,17.33
2018-12-06T17:10:56.625Z,16.83
2018-12-06T17:13:19.728Z,16.37
2018-12-06T17:15:42.874Z,16.93
2018-12-06T17:18:06.051Z,16.03
2018-12-06T17:20:29.775Z,18.67
2018-12-06T17:22:52.957Z,17.90
2018-12-06T17:25:16.102Z,18.67
2018-12-06T17:27:39.248Z,18.93
2018-12-06T17:30:02.507Z,19.13
2018-12-06T17:32:25.776Z,18.87
2018-12-06T17:34:48.956Z,20.20
2018-12-06T17:37:12.082Z,19.67
2018-12-06T17:39:36.701Z,19.23
2018-12-06T17:42:00.137Z,21.20
2018-12-06T17:44:23.255Z,18.83
2018-12-06T17:46:46.392Z,20.13
2018-12-06T17:49:09.520Z,20.77
2018-12-06T17:51:32.671Z,20.57
2018-12-06T17:53:55.793Z,19.70
2018-12-06T17:56:18.997Z,21.63
2018-12-06T17:58:42.117Z,20.20
2018-12-06T18:01:05.374Z,20.40
2018-12-06T18:03:28.557Z,18.87
2018-12-06T18:05:51.673Z,19.87
2018-12-06T18:08:14.849Z,20.57
2018-12-06T18:10:38.613Z,19.40
2018-12-06T18:13:01.738Z,18.50
2018-12-06T18:15:25.378Z,18.23
2018-12-06T18:17:48.514Z,18.57
2018-12-06T18:20:11.735Z,19.77
2018-12-06T18:22:34.860Z,18.97
2018-12-06T18:24:57.986Z,19.17
2018-12-06T18:27:21.152Z,19.63
2018-12-06T18:29:44.275Z,19.73
2018-12-06T18:32:07.412Z,20.60
2018-12-06T18:34:30.676Z,18.13
2018-12-06T18:36:53.797Z,20.90
2018-12-06T18:39:16.917Z,20.27
2018-12-06T18:41:40.090Z,20.80
2018-12-06T18:44:03.254Z,20.73
2018-12-06T18:46:26.502Z,20.23
2018-12-06T18:48:49.623Z,19.07
2018-12-06T18:51:12.737Z,20.87
2018-12-06T18:53:36.037Z,20.63
2018-12-06T18:55:59.232Z,20.90
2018-12-06T18:58:22.383Z,22.53
2018-12-06T19:00:45.512Z,24.93
2018-12-06T19:03:08.633Z,22.17
2018-12-06T19:05:31.796Z,22.43
2018-12-06T19:07:55.201Z,23.00
2018-12-06T19:10:18.325Z,22.60
2018-12-06T19:12:41.446Z,21.53
2018-12-06T19:15:04.780Z,24.27
2018-12-06T19:17:27.955Z,24.27
2018-12-06T19:19:51.721Z,23.90
2018-12-06T19:22:14.875Z,25.90
2018-12-06T19:24:38.068Z,24.17
2018-12-06T19:27:01.261Z,25.47
2018-12-06T19:29:25.329Z,22.27
2018-12-06T19:31:48.463Z,27.63
2018-12-06T19:34:11.603Z,26.03
2018-12-06T19:36:34.764Z,24.57
2018-12-06T19:38:58.804Z,23.80
2018-12-06T19:41:21.936Z,24.30
2018-12-06T19:43:45.126Z,26.40
2018-12-06T19:46:08.230Z,24.60
2018-12-06T19:48:31.387Z,25.40
2018-12-06T19:50:54.519Z,26.13
2018-12-06T19:53:17.637Z,25.27
2018-12-06T19:55:42.864Z,25.37
2018-12-06T19:58:06.008Z,25.80
2018-12-06T20:00:29.208Z,25.07
2018-12-06T20:02:52.335Z,27.30
2018-12-06T20:05:15.581Z,25.87
2018-12-06T20:07:38.764Z,27.60
2018-12-06T20:10:01.932Z,26.27
2018-12-06T20:12:25.067Z,25.47
2018-12-06T20:14:48.223Z,27.67
2018-12-06T20:17:11.390Z,27.70
2018-12-06T20:19:35.278Z,26.33
2018-12-06T20:21:58.415Z,26.03
2018-12-06T20:24:21.569Z,28.27
2018-12-06T20:26:44.725Z,27.13
2018-12-06T20:29:07.920Z,27.80
2018-12-06T20:31:31.116Z,26.23
2018-12-06T20:33:54.293Z,27.37
2018-12-06T20:36:17.420Z,24.97
2018-12-06T20:38:40.537Z,26.70
2018-12-06T20:41:03.739Z,28.13
2018-12-06T20:43:26.841Z,26.50
2018-12-06T20:45:50.007Z,28.03
2018-12-06T20:48:13.135Z,27.60
2018-12-06T20:50:36.266Z,26.47
2018-12-06T20:52:59.408Z,26.40
2018-12-06T20:55:22.530Z,27.00
2018-12-06T20:57:45.676Z,26.67
2018-12-06T21:00:08.938Z,27.13
2018-12-06T21:02:32.093Z,29.50
2018-12-06T21:04:55.224Z,28.97
2018-12-06T21:07:18.438Z,25.30
2018-12-06T21:09:41.699Z,25.10
2018-12-06T21:12:04.878Z,25.37
2018-12-06T21:14:27.999Z,24.77
2018-12-06T21:16:51.171Z,25.47
2018-12-06T21:19:14.389Z,26.17
2018-12-06T21:21:37.620Z,27.03
2018-12-06T21:24:00.762Z,25.90
2018-12-06T21:26:23.944Z,25.37
2018-12-06T21:28:47.133Z,24.70
2018-12-06T21:31:10.277Z,26.33
2018-12-06T21:33:33.522Z,25.13
2018-12-06T21:35:56.629Z,23.83
2018-12-06T21:38:19.764Z,25.80
2018-12-06T21:40:42.946Z,25.07
2018-12-06T21:43:06.057Z,24.20
2018-12-06T21:45:29.291Z,25.30
2018-12-06T21:47:52.388Z,24.37
2018-12-06T21:50:15.509Z,26.77
2018-12-06T21:52:38.642Z,22.10
2018-12-06T21:55:01.811Z,25.60
2018-12-06T21:57:24.948Z,23.70
2018-12-06T21:59:48.101Z,24.13
2018-12-06T22:02:23.294Z,23.93
2018-12-06T22:04:46.493Z,24.87
2018-12-06T22:07:09.599Z,24.80
2018-12-06T22:09:32.769Z,23.47
2018-12-06T22:11:55.898Z,23.37
2018-12-06T22:14:18.999Z,24.23
2018-12-06T22:16:42.376Z,24.30
2018-12-06T22:19:05.457Z,23.20
2018-12-06T22:21:28.580Z,23.63
2018-12-06T22:23:51.757Z,23.17
2018-12-06T22:26:14.946Z,23.57
2018-12-06T22:28:38.203Z,23.33
2018-12-06T22:31:01.360Z,24.20
2018-12-06T22:33:24.513Z,23.03
2018-12-06T22:35:47.654Z,22.83
2018-12-06T22:38:10.764Z,24.57
2018-12-06T22:40:34.011Z,21.70
2018-12-06T22:42:57.123Z,21.07
2018-12-06T22:48:15.771Z,21.57
2018-12-06T22:50:39.096Z,21.50
2018-12-06T22:53:02.207Z,21.53
2018-12-06T22:55:25.328Z,22.43
2018-12-06T22:57:48.440Z,20.70
2018-12-06T23:00:14.220Z,21.17
2018-12-06T23:02:37.486Z,22.00
2018-12-06T23:05:00.591Z,20.40
2018-12-06T23:07:23.702Z,20.03
2018-12-06T23:09:46.861Z,21.53
2018-12-06T23:12:10.027Z,18.97
2018-12-06T23:14:33.160Z,20.13
2018-12-06T23:16:56.272Z,19.60
2018-12-06T23:19:19.739Z,18.87
2018-12-06T23:21:42.911Z,19.87
2018-12-06T23:24:06.009Z,19.50
2018-12-06T23:26:29.448Z,19.47
2018-12-06T23:28:52.576Z,20.87
2018-12-06T23:31:15.711Z,19.53
2018-12-06T23:33:38.850Z,18.53
2018-12-06T23:36:02.005Z,19.93
2018-12-06T23:38:25.463Z,19.63
2018-12-06T23:40:48.568Z,19.37
2018-12-06T23:43:11.696Z,19.57
2018-12-06T23:45:34.870Z,19.93
2018-12-06T23:47:58.001Z,19.67
2018-12-06T23:50:21.641Z,20.23
2018-12-06T23:52:44.828Z,20.67
2018-12-06T23:55:08.006Z,19.13
2018-12-06T23:57:31.180Z,19.83
2018-12-06T23:59:54.339Z,19.53
